Time;durP1;ratioP1;P1;durP2;ratioP2;P2;SDS_P1;SDS_P2;PMS_P1;PMS_P2;Temp;Humidity;BMP_temperature;BMP_pressure;BME280_temperature;BME280_humidity;BME280_pressure;Samples;Min_cycle;Max_cycle;Signal;HPM_P1;HPM_P2
2021/07/30 00:00:59;;;;;;;227.73;99.80;;;;;;;20.37;60.93;93364.44;5152079;27;20030;-56
2021/07/30 00:03:25;;;;;;;276.50;114.13;;;;;;;20.35;61.12;93362.25;5151967;27;20026;-55
2021/07/30 00:05:53;;;;;;;223.38;93.38;;;;;;;20.32;61.23;93360.69;5152327;27;20027;-56
2021/07/30 00:08:20;;;;;;;217.70;101.60;;;;;;;20.27;61.11;93361.06;5152046;27;20023;-54
2021/07/30 00:10:46;;;;;;;244.90;106.72;;;;;;;20.27;61.48;93363.88;5152273;27;20035;-55
2021/07/30 00:13:12;;;;;;;257.65;104.13;;;;;;;20.24;61.62;93365.84;5152196;27;20485;-55
2021/07/30 00:15:37;;;;;;;231.88;109.32;;;;;;;20.22;61.66;93362.19;5077855;27;20024;-55
2021/07/30 00:18:04;;;;;;;283.80;121.10;;;;;;;20.18;61.90;93354.22;5047165;28;20043;-53
2021/07/30 00:20:30;;;;;;;290.13;129.60;;;;;;;20.11;62.12;93360.84;5046263;28;20472;-48
2021/07/30 00:22:55;;;;;;;348.58;148.85;;;;;;;20.08;62.24;93348.06;5111597;27;20046;-48
2021/07/30 00:25:21;;;;;;;387.40;166.75;;;;;;;19.91;62.71;93348.47;5151505;27;20034;-56
2021/07/30 00:27:46;;;;;;;335.63;139.85;;;;;;;20.02;62.49;93353.31;5152135;27;20027;-56
2021/07/30 00:30:12;;;;;;;320.92;156.15;;;;;;;20.08;62.16;93350.13;5151860;27;20027;-54
2021/07/30 00:32:37;;;;;;;371.00;161.73;;;;;;;20.07;62.50;93346.59;5152063;27;20026;-52
2021/07/30 00:35:03;;;;;;;364.52;166.63;;;;;;;20.02;62.55;93353.31;5151885;27;20570;-53
2021/07/30 00:37:28;;;;;;;304.40;128.63;;;;;;;20.09;61.92;93354.38;5151930;27;20580;-52
2021/07/30 00:39:54;;;;;;;268.00;118.85;;;;;;;20.02;61.32;93346.97;5151630;27;20042;-55
2021/07/30 00:42:19;;;;;;;296.67;120.53;;;;;;;19.90;61.39;93335.81;5105461;27;20028;-57
2021/07/30 00:44:45;;;;;;;319.25;142.25;;;;;;;20.01;61.92;93346.22;5067052;28;20035;-57
2021/07/30 00:47:10;;;;;;;300.52;126.32;;;;;;;19.88;62.22;93337.75;5066616;28;20025;-53
2021/07/30 00:49:36;;;;;;;322.95;142.50;;;;;;;19.80;62.55;93348.47;5066945;28;20107;-55
2021/07/30 00:52:02;;;;;;;315.60;142.48;;;;;;;19.78;62.04;93348.38;5065686;28;20088;-55
2021/07/30 00:54:28;;;;;;;384.17;167.35;;;;;;;19.59;62.48;93340.97;5105048;27;20084;-55
2021/07/30 00:56:53;;;;;;;422.55;167.07;;;;;;;19.62;62.57;93332.06;5070518;27;20017;-54
2021/07/30 00:59:21;;;;;;;358.70;166.82;;;;;;;19.63;62.74;93347.56;5041269;28;20033;-56
2021/07/30 01:01:46;;;;;;;371.10;146.40;;;;;;;19.65;62.05;93344.88;5039337;28;20029;-57
2021/07/30 01:04:12;;;;;;;325.15;134.27;;;;;;;19.59;62.21;93341.72;5043825;28;20028;-53
2021/07/30 01:06:38;;;;;;;256.02;118.30;;;;;;;19.62;62.76;93339.75;5050132;28;20032;-57
2021/07/30 01:09:03;;;;;;;270.08;111.90;;;;;;;19.64;63.10;93340.59;5049870;28;20036;-58
2021/07/30 01:11:28;;;;;;;344.40;134.95;;;;;;;19.63;63.07;93335.59;5049993;28;20028;-57
2021/07/30 01:13:54;;;;;;;327.35;127.95;;;;;;;19.61;62.85;93339.03;5050287;28;20040;-53
2021/07/30 01:16:19;;;;;;;290.08;117.70;;;;;;;19.59;63.21;93330.50;5049867;28;20434;-50
2021/07/30 01:18:45;;;;;;;311.98;133.38;;;;;;;19.53;62.74;93332.22;5096143;27;20034;-54
2021/07/30 01:21:23;;;;;;;341.90;145.13;;;;;;;19.34;63.28;93327.59;5155520;27;20399;-55
2021/07/30 01:23:49;;;;;;;271.63;127.93;;;;;;;19.33;63.12;93328.19;5155295;27;20045;-49
2021/07/30 01:26:16;;;;;;;377.40;159.43;;;;;;;19.31;63.14;93331.59;5154957;27;20035;-54
2021/07/30 01:28:41;;;;;;;395.85;170.80;;;;;;;19.36;62.80;93332.59;5154846;27;20468;-53
2021/07/30 01:31:07;;;;;;;411.17;175.00;;;;;;;19.22;63.32;93329.66;5154984;27;20022;-57
2021/07/30 01:33:32;;;;;;;423.65;188.40;;;;;;;19.06;63.57;93333.56;5155220;27;20019;-57
2021/07/30 01:35:58;;;;;;;348.98;155.85;;;;;;;19.23;62.86;93336.69;5154799;27;20446;-57
2021/07/30 01:38:23;;;;;;;363.58;152.85;;;;;;;19.23;63.36;93333.91;5155045;27;20051;-57
2021/07/30 01:40:49;;;;;;;360.95;166.63;;;;;;;19.19;63.61;93332.94;5155015;27;20030;-57
2021/07/30 01:43:14;;;;;;;341.55;143.60;;;;;;;19.21;63.61;93325.38;5076295;27;20100;-57
2021/07/30 01:45:40;;;;;;;334.23;132.05;;;;;;;19.21;63.71;93325.38;5069516;27;20028;-56
2021/07/30 01:48:05;;;;;;;288.23;109.75;;;;;;;19.05;63.85;93304.84;5069695;28;20032;-55
2021/07/30 01:50:30;;;;;;;224.48;97.88;;;;;;;19.14;64.14;93323.56;5068193;28;20021;-56
2021/07/30 01:52:56;;;;;;;298.20;130.02;;;;;;;19.06;64.51;93317.47;5049326;28;20040;-55
2021/07/30 01:55:23;;;;;;;284.13;117.07;;;;;;;19.02;64.68;93324.88;5049213;27;20025;-55
2021/07/30 01:57:49;;;;;;;190.48;76.10;;;;;;;19.02;64.77;93322.81;5049687;28;20417;-54
2021/07/30 02:00:15;;;;;;;274.60;99.18;;;;;;;19.01;64.38;93329.03;5049517;28;20024;-56
2021/07/30 02:02:40;;;;;;;180.93;81.65;;;;;;;18.95;64.85;93323.09;5049540;28;20021;-54
2021/07/30 02:05:06;;;;;;;265.17;103.60;;;;;;;18.80;64.87;93315.88;5049480;28;20070;-58
2021/07/30 02:07:34;;;;;;;312.88;126.38;;;;;;;18.79;64.75;93325.59;5049207;28;20448;-58
2021/07/30 02:10:00;;;;;;;282.13;107.53;;;;;;;18.77;64.31;93319.91;5048657;28;20029;-58
2021/07/30 02:12:25;;;;;;;221.25;92.85;;;;;;;18.77;64.26;93317.84;5049017;28;20077;-57
2021/07/30 02:14:50;;;;;;;209.30;88.60;;;;;;;18.81;64.07;93320.13;5088714;27;20023;-57
2021/07/30 02:17:16;;;;;;;180.43;77.40;;;;;;;18.84;63.94;93321.75;5154252;27;20507;-57
2021/07/30 02:19:41;;;;;;;198.57;79.05;;;;;;;18.84;64.07;93318.94;5153133;27;20026;-57
2021/07/30 02:22:07;;;;;;;180.07;70.88;;;;;;;18.79;63.62;93320.75;5154263;27;20015;-53
2021/07/30 02:24:34;;;;;;;165.45;62.63;;;;;;;18.72;63.77;93323.78;5154086;27;20104;-58
2021/07/30 02:26:59;;;;;;;170.93;74.70;;;;;;;18.65;63.72;93325.47;5153820;27;20062;-57
2021/07/30 02:29:25;;;;;;;167.75;69.55;;;;;;;18.60;64.28;93334.22;5153988;27;20483;-58
2021/07/30 02:31:50;;;;;;;224.80;85.47;;;;;;;18.58;64.42;93339.69;5154015;27;20018;-58
2021/07/30 02:34:16;;;;;;;234.95;95.63;;;;;;;18.50;64.72;93337.09;5154034;27;20075;-57
2021/07/30 02:36:42;;;;;;;240.77;93.78;;;;;;;18.39;64.52;93332.16;5153836;27;20075;-53
2021/07/30 02:39:08;;;;;;;239.50;92.30;;;;;;;18.26;64.88;93337.63;5153945;27;20034;-54
2021/07/30 02:41:33;;;;;;;333.67;128.85;;;;;;;17.97;65.90;93338.59;5134526;27;20024;-57
2021/07/30 02:43:59;;;;;;;208.07;92.63;;;;;;;18.08;65.97;93337.88;5068843;28;20412;-57
2021/07/30 02:46:24;;;;;;;203.35;87.72;;;;;;;18.23;65.46;93350.72;5068719;28;20013;-57
2021/07/30 02:48:50;;;;;;;206.77;80.93;;;;;;;18.26;65.62;93337.63;5068836;28;20028;-57
2021/07/30 02:51:16;;;;;;;225.75;88.22;;;;;;;18.30;65.33;93332.28;5068399;28;20024;-54
2021/07/30 02:53:41;;;;;;;137.63;57.63;;;;;;;18.29;65.43;93333.59;5065684;27;20107;-51
2021/07/30 02:56:07;;;;;;;117.50;47.58;;;;;;;18.31;65.23;93333.72;5048358;28;20121;-49
2021/07/30 02:58:33;;;;;;;170.02;64.70;;;;;;;18.27;65.67;93342.59;5048171;28;20054;-51
2021/07/30 03:00:59;;;;;;;189.75;74.90;;;;;;;18.18;65.92;93346.94;5048249;28;20020;-49
2021/07/30 03:03:25;;;;;;;225.68;83.70;;;;;;;18.16;65.80;93346.81;5048532;28;20099;-48
2021/07/30 03:05:51;;;;;;;213.77;85.80;;;;;;;18.15;65.70;93339.75;5048144;28;20017;-50
2021/07/30 03:08:16;;;;;;;179.30;68.68;;;;;;;18.16;65.57;93341.22;5048157;28;20036;-51
2021/07/30 03:10:42;;;;;;;212.05;80.57;;;;;;;18.17;65.37;93339.88;5053276;27;20031;-51
2021/07/30 03:13:07;;;;;;;243.27;94.72;;;;;;;18.13;65.36;93345.19;5036941;28;20025;-48
2021/07/30 03:15:32;;;;;;;141.38;56.78;;;;;;;18.14;65.79;93352.28;5038828;28;20493;-48
2021/07/30 03:17:58;;;;;;;192.65;73.32;;;;;;;18.14;65.73;93348.72;5037365;28;20029;-50
2021/07/30 03:20:23;;;;;;;171.63;73.75;;;;;;;18.10;65.42;93343.59;5036382;28;20028;-48
2021/07/30 03:22:49;;;;;;;205.40;80.43;;;;;;;18.13;65.61;93353.59;5027943;28;20029;-49
2021/07/30 03:25:14;;;;;;;188.75;74.60;;;;;;;18.15;65.50;93358.56;5027829;28;20037;-52
2021/07/30 03:27:42;;;;;;;245.73;98.85;;;;;;;18.03;65.62;93344.56;5043852;28;20033;-54
2021/07/30 03:30:08;;;;;;;149.85;62.40;;;;;;;18.13;65.79;93355.66;5044596;28;20025;-55
2021/07/30 03:32:34;;;;;;;179.27;71.70;;;;;;;18.13;65.50;93370.34;5035593;28;20108;-54
2021/07/30 03:34:59;;;;;;;228.63;83.45;;;;;;;18.08;65.68;93363.03;5028500;28;20126;-50
2021/07/30 03:37:25;;;;;;;184.93;83.47;;;;;;;18.08;65.64;93376.28;5026060;28;20078;-57
2021/07/30 03:39:50;;;;;;;228.48;85.72;;;;;;;18.12;65.65;93380.09;5026451;28;20029;-55
2021/07/30 03:42:15;;;;;;;246.77;94.20;;;;;;;18.04;65.82;93381.63;5046750;28;20031;-51
2021/07/30 03:44:41;;;;;;;200.02;80.07;;;;;;;18.16;65.77;93376.81;5066185;28;20055;-58
2021/07/30 03:47:06;;;;;;;196.70;77.78;;;;;;;18.13;65.63;93378.72;5065798;28;20021;-58
2021/07/30 03:49:32;;;;;;;221.55;85.50;;;;;;;18.10;65.65;93376.41;5058201;27;20028;-56
2021/07/30 03:51:57;;;;;;;208.98;86.65;;;;;;;18.08;65.56;93376.28;5047565;28;20036;-56
2021/07/30 03:54:23;;;;;;;227.93;89.15;;;;;;;18.15;65.35;93381.66;5047439;27;20033;-52
2021/07/30 03:56:48;;;;;;;202.32;78.70;;;;;;;18.16;65.58;93377.53;5047740;28;20025;-54
2021/07/30 03:59:13;;;;;;;214.45;84.20;;;;;;;18.21;65.57;93377.81;5047401;28;20021;-57
2021/07/30 04:01:46;;;;;;;177.40;66.43;;;;;;;18.20;65.29;93382.66;5047700;28;20021;-56
2021/07/30 04:04:12;;;;;;;160.38;58.95;;;;;;;18.17;65.60;93375.47;5047354;28;20036;-56
2021/07/30 04:06:38;;;;;;;128.25;53.08;;;;;;;18.13;65.24;93370.34;5055912;27;20021;-59
2021/07/30 04:09:03;;;;;;;111.97;51.92;;;;;;;18.09;65.16;93370.09;5152008;27;20022;-59
2021/07/30 04:11:28;;;;;;;126.25;55.28;;;;;;;18.07;65.81;93369.22;5152325;27;20018;-59
2021/07/30 04:13:54;;;;;;;153.05;62.47;;;;;;;18.12;66.06;93371.69;5152265;27;20026;-57
2021/07/30 04:16:20;;;;;;;181.57;63.03;;;;;;;18.17;66.09;93372.66;5152213;27;20459;-57
2021/07/30 04:18:45;;;;;;;209.07;76.82;;;;;;;18.22;66.61;93370.88;5152124;27;20444;-58
2021/07/30 04:21:11;;;;;;;189.43;84.47;;;;;;;18.26;66.76;93368.34;5151784;27;20046;-58
2021/07/30 04:23:36;;;;;;;210.73;86.15;;;;;;;18.28;66.59;93360.09;5151986;27;20026;-57
2021/07/30 04:26:02;;;;;;;179.95;71.70;;;;;;;18.40;66.52;93377.63;5151502;27;20043;-54
2021/07/30 04:28:28;;;;;;;281.90;97.43;;;;;;;18.36;66.23;93363.41;5152017;27;20035;-56
2021/07/30 04:30:53;;;;;;;341.77;132.65;;;;;;;18.31;66.42;93367.25;5151988;27;20526;-55
2021/07/30 04:33:19;;;;;;;364.58;137.80;;;;;;;18.40;66.63;93369.97;5154863;27;20026;-57
2021/07/30 04:35:44;;;;;;;210.32;86.25;;;;;;;18.49;66.32;93374.06;5155870;27;20027;-58
2021/07/30 04:38:09;;;;;;;363.50;143.13;;;;;;;18.45;66.63;93365.41;5047484;27;20032;-59
2021/07/30 04:40:38;;;;;;;380.73;164.85;;;;;;;18.38;66.85;93367.06;5039637;28;20467;-58
2021/07/30 04:43:04;;;;;;;355.50;136.43;;;;;;;18.60;66.74;93362.19;5041337;28;20025;-57
2021/07/30 04:45:32;;;;;;;431.30;150.63;;;;;;;18.77;66.84;93368.19;5034522;28;20154;-55
2021/07/30 04:47:58;;;;;;;397.83;169.00;;;;;;;18.82;66.66;93366.34;5035882;27;20098;-56
2021/07/30 04:50:23;;;;;;;417.17;158.88;;;;;;;18.88;66.24;93366.75;5033391;28;20462;-56
2021/07/30 04:52:53;;;;;;;387.27;166.43;;;;;;;18.95;66.67;93362.97;5040323;28;20016;-63
2021/07/30 04:55:18;;;;;;;432.83;178.98;;;;;;;18.99;66.07;93368.81;5040066;27;20051;-58
2021/07/30 04:57:44;;;;;;;417.92;160.60;;;;;;;19.05;66.30;93363.59;5041842;28;20653;-58
2021/07/30 05:00:10;;;;;;;380.25;162.05;;;;;;;19.13;66.16;93364.09;5037893;28;20033;-58
2021/07/30 05:02:35;;;;;;;469.15;194.20;;;;;;;19.14;66.46;93356.44;5040021;28;20032;-58
2021/07/30 05:05:00;;;;;;;508.55;222.27;;;;;;;19.21;67.14;93363.84;5044807;27;20429;-58
2021/07/30 05:07:26;;;;;;;559.20;241.63;;;;;;;19.31;67.09;93368.00;5038374;28;20084;-57
2021/07/30 05:09:51;;;;;;;627.28;270.90;;;;;;;19.37;66.73;93350.84;5040109;28;20036;-58
2021/07/30 05:12:17;;;;;;;555.40;229.82;;;;;;;19.50;65.97;93361.44;5038234;28;20387;-58
2021/07/30 05:26:28;;;;;;;1984.95;862.10;;;;;;;20.65;63.79;93359.69;5162175;27;20736;-59
2021/07/30 05:28:53;;;;;;;1370.50;610.65;;;;;;;20.68;63.68;93364.06;5159602;27;20566;-59
2021/07/30 05:31:19;;;;;;;1235.85;542.55;;;;;;;20.55;64.07;93354.25;5160997;27;20041;-59
2021/07/30 05:33:46;;;;;;;1031.43;447.60;;;;;;;20.65;63.47;93357.59;5158130;27;20019;-59
2021/07/30 05:36:19;;;;;;;830.75;365.65;;;;;;;20.64;62.72;93363.84;5157052;27;20062;-59
2021/07/30 05:38:45;;;;;;;842.35;380.88;;;;;;;20.66;63.05;93372.38;5163306;27;20494;-58
2021/07/30 05:41:11;;;;;;;769.17;354.95;;;;;;;20.65;62.90;93359.69;5169603;27;20026;-57
2021/07/30 05:43:40;;;;;;;715.17;348.50;;;;;;;20.70;62.05;93367.72;5169548;27;20030;-59
2021/07/30 05:46:07;;;;;;;851.97;360.90;;;;;;;20.80;62.92;93367.53;5169805;27;20225;-59
2021/07/30 05:48:32;;;;;;;638.30;287.17;;;;;;;20.89;62.83;93363.81;5168595;27;20030;-60
2021/07/30 05:50:58;;;;;;;647.20;270.52;;;;;;;20.96;62.57;93360.00;5169429;27;20572;-60
2021/07/30 05:53:23;;;;;;;627.70;277.00;;;;;;;20.92;62.46;93356.97;5167613;27;20415;-59
2021/07/30 05:55:49;;;;;;;784.78;374.48;;;;;;;20.92;62.76;93354.16;5148776;27;20034;-59
2021/07/30 05:58:15;;;;;;;822.80;368.95;;;;;;;21.06;63.18;93357.75;5148705;27;20050;-60
2021/07/30 06:00:40;;;;;;;915.05;413.98;;;;;;;21.08;63.56;93343.81;5148586;27;20388;-59
2021/07/30 06:03:06;;;;;;;958.92;426.83;;;;;;;21.24;62.76;93350.31;5148413;27;20506;-62
2021/07/30 06:05:31;;;;;;;888.20;411.10;;;;;;;21.31;62.03;93354.88;5148547;27;20019;-61
2021/07/30 06:07:57;;;;;;;807.45;392.83;;;;;;;21.39;60.85;93332.84;5148295;27;20126;-60
2021/07/30 06:10:23;;;;;;;887.10;441.25;;;;;;;21.59;61.91;93355.66;5148239;27;20029;-60
2021/07/30 06:12:49;;;;;;;847.20;406.08;;;;;;;21.79;61.53;93360.22;5148218;27;20027;-60
2021/07/30 06:15:14;;;;;;;789.95;402.98;;;;;;;21.88;61.08;93353.69;5148326;27;20027;-60
2021/07/30 06:17:40;;;;;;;454.17;240.68;;;;;;;22.06;58.55;93344.72;5148452;27;20503;-60
2021/07/30 06:20:07;;;;;;;514.33;286.20;;;;;;;22.24;59.37;93357.56;5148025;27;20031;-56
2021/07/30 06:22:35;;;;;;;487.70;258.75;;;;;;;22.30;59.19;93348.72;5153021;27;20487;-57
2021/07/30 06:25:02;;;;;;;410.83;229.43;;;;;;;22.42;59.08;93358.47;5167869;27;20178;-56
2021/07/30 06:27:27;;;;;;;101.03;63.65;;;;;;;22.63;56.64;93352.50;5154424;27;20030;-58
2021/07/30 06:29:52;;;;;;;32.50;20.15;;;;;;;22.81;55.33;93349.81;5154851;27;20430;-57
2021/07/30 06:32:18;;;;;;;58.33;33.72;;;;;;;22.79;56.01;93354.63;5154978;27;20460;-58
2021/07/30 06:34:43;;;;;;;50.80;35.28;;;;;;;22.85;56.71;93361.25;5154908;27;20034;-54
2021/07/30 06:37:09;;;;;;;16.80;9.35;;;;;;;23.05;53.54;93359.41;5154693;27;20387;-53
2021/07/30 06:39:34;;;;;;;28.38;12.60;;;;;;;23.23;55.44;93359.50;5154837;27;20056;-53
2021/07/30 06:42:00;;;;;;;24.90;10.13;;;;;;;23.31;52.50;93340.88;5154620;27;20097;-57
2021/07/30 06:44:25;;;;;;;20.35;9.25;;;;;;;23.57;51.48;93352.63;5154499;27;20018;-58
2021/07/30 06:46:51;;;;;;;20.75;9.60;;;;;;;23.70;53.70;93348.97;5154428;27;20095;-56
2021/07/30 06:49:16;;;;;;;21.23;8.18;;;;;;;23.88;48.56;93343.41;5154225;27;20026;-57
2021/07/30 06:51:42;;;;;;;24.63;9.38;;;;;;;23.95;50.67;93347.94;5154290;27;20113;-58
2021/07/30 06:54:07;;;;;;;18.58;8.65;;;;;;;24.19;50.81;93345.47;5154111;27;20423;-58
2021/07/30 06:56:34;;;;;;;24.13;8.55;;;;;;;24.33;51.29;93343.94;5153820;27;20030;-57
2021/07/30 06:58:59;;;;;;;27.23;8.32;;;;;;;24.31;51.86;93349.50;5152800;27;20064;-57
2021/07/30 07:01:25;;;;;;;45.60;10.38;;;;;;;24.41;52.67;93352.00;5152730;27;20034;-58
2021/07/30 07:03:50;;;;;;;48.50;10.00;;;;;;;24.65;50.94;93347.34;5152682;27;20079;-57
2021/07/30 07:06:17;;;;;;;26.02;9.57;;;;;;;24.72;51.18;93346.22;5152846;27;20048;-58
2021/07/30 07:08:43;;;;;;;15.88;8.00;;;;;;;24.83;51.71;93350.94;5152731;27;20026;-58
2021/07/30 07:11:09;;;;;;;22.08;7.95;;;;;;;25.00;51.49;93341.72;5152893;27;20031;-58
2021/07/30 07:13:34;;;;;;;22.17;8.57;;;;;;;25.15;52.32;93346.53;5153843;27;20505;-58
2021/07/30 07:16:00;;;;;;;19.98;8.38;;;;;;;25.54;49.90;93351.56;5154140;27;20045;-58
2021/07/30 07:18:25;;;;;;;27.40;8.60;;;;;;;25.76;49.40;93338.25;5154135;27;20023;-57
2021/07/30 07:20:56;;;;;;;18.38;8.82;;;;;;;25.75;50.96;93338.91;5154186;27;20075;-58
2021/07/30 07:23:21;;;;;;;19.90;8.38;;;;;;;25.82;50.03;93346.22;5154037;27;20019;-58
2021/07/30 07:25:47;;;;;;;18.55;7.63;;;;;;;26.05;49.87;93346.34;5153260;27;20407;-58
2021/07/30 07:28:12;;;;;;;20.92;7.38;;;;;;;26.29;50.51;93335.88;5152741;27;20364;-57
2021/07/30 07:30:37;;;;;;;23.45;8.55;;;;;;;26.59;48.55;93352.44;5153888;27;20019;-58
2021/07/30 07:33:03;;;;;;;22.55;7.13;;;;;;;26.87;46.44;93342.81;5153533;27;20027;-58
2021/07/30 07:35:28;;;;;;;31.80;8.13;;;;;;;27.02;47.29;93341.13;5153378;27;20034;-57
2021/07/30 07:38:03;;;;;;;23.90;8.18;;;;;;;27.15;46.51;93325.22;5152451;27;20038;-58
2021/07/30 07:40:29;;;;;;;21.05;7.38;;;;;;;27.58;45.28;93342.13;5153730;27;20031;-55
2021/07/30 07:42:56;;;;;;;22.15;7.38;;;;;;;27.93;43.52;93338.91;5153424;27;20325;-56
2021/07/30 07:45:21;;;;;;;19.77;8.95;;;;;;;28.38;45.28;93329.47;5153453;27;20031;-56
2021/07/30 07:47:47;;;;;;;19.60;7.35;;;;;;;28.82;40.80;93333.47;5153581;27;20529;-57
2021/07/30 07:50:12;;;;;;;21.30;7.88;;;;;;;29.10;41.10;93336.25;5153302;27;20061;-58
2021/07/30 07:52:38;;;;;;;27.38;8.13;;;;;;;29.53;39.36;93327.31;5153108;27;20030;-58
2021/07/30 07:55:04;;;;;;;18.98;6.55;;;;;;;30.01;37.64;93332.56;5152744;27;20018;-57
2021/07/30 07:57:29;;;;;;;20.77;7.32;;;;;;;30.53;36.89;93327.91;5133166;27;20035;-58
2021/07/30 07:59:55;;;;;;;21.77;7.13;;;;;;;30.97;34.78;93325.81;5132341;27;20023;-56
2021/07/30 08:02:20;;;;;;;22.63;7.05;;;;;;;31.58;34.15;93326.75;5132333;27;20063;-56
2021/07/30 08:04:46;;;;;;;31.13;7.28;;;;;;;32.13;32.74;93334.63;5132177;27;20027;-56
2021/07/30 08:07:15;;;;;;;24.80;7.55;;;;;;;32.66;30.78;93325.19;5132201;27;20038;-56
2021/07/30 08:09:41;;;;;;;21.05;8.13;;;;;;;33.12;29.43;93330.63;5132393;27;20095;-56
2021/07/30 08:12:06;;;;;;;19.08;7.35;;;;;;;33.70;29.52;93321.03;5132426;27;20491;-56
2021/07/30 08:14:32;;;;;;;20.55;7.65;;;;;;;34.37;28.68;93325.66;5132316;27;20076;-56
2021/07/30 08:16:57;;;;;;;32.97;8.18;;;;;;;34.99;26.95;93322.19;5132285;27;20019;-56
2021/07/30 08:19:23;;;;;;;18.92;6.60;;;;;;;35.69;26.54;93327.91;5131977;27;20026;-56
2021/07/30 08:21:48;;;;;;;21.63;7.25;;;;;;;36.11;25.20;93329.97;5132168;27;20099;-56
2021/07/30 08:24:14;;;;;;;21.25;6.68;;;;;;;36.49;24.56;93321.19;5131836;27;20015;-55
2021/07/30 08:26:39;;;;;;;20.63;7.55;;;;;;;36.75;23.44;93323.22;5131795;27;20046;-55
2021/07/30 08:29:04;;;;;;;19.98;7.13;;;;;;;37.08;24.37;93318.69;5131767;27;20027;-56
2021/07/30 08:31:30;;;;;;;24.45;7.88;;;;;;;37.76;23.64;93314.50;5132004;27;20030;-56
2021/07/30 08:33:55;;;;;;;14.85;6.10;;;;;;;38.43;22.71;93305.09;5131888;27;20030;-56
2021/07/30 08:36:21;;;;;;;20.58;6.82;;;;;;;38.37;20.99;93303.03;5131835;27;20403;-56
2021/07/30 08:38:46;;;;;;;19.77;5.95;;;;;;;39.19;21.21;93300.44;5131896;27;20027;-56
2021/07/30 08:41:19;;;;;;;20.52;6.88;;;;;;;39.94;19.86;93309.22;5131919;27;20051;-56
2021/07/30 08:43:44;;;;;;;117.00;12.13;;;;;;;40.03;19.76;93301.16;5131664;27;20566;-56
2021/07/30 08:46:10;;;;;;;20.02;6.63;;;;;;;40.67;19.14;93299.13;5130194;27;20027;-56
2021/07/30 08:48:35;;;;;;;20.73;7.63;;;;;;;41.44;18.18;93298.78;5131524;27;20027;-57
2021/07/30 08:51:02;;;;;;;20.88;8.07;;;;;;;40.77;19.61;93296.72;5131431;27;20478;-56
2021/07/30 08:53:28;;;;;;;17.23;6.77;;;;;;;41.38;18.01;93301.84;5146911;27;20623;-57
2021/07/30 08:55:54;;;;;;;38.92;7.18;;;;;;;41.91;18.36;93295.41;5152075;27;20027;-56
2021/07/30 08:58:19;;;;;;;30.42;7.30;;;;;;;42.29;17.50;93293.66;5151107;27;20023;-57
2021/07/30 09:00:45;;;;;;;16.42;6.50;;;;;;;42.56;17.17;93291.44;5152126;27;20049;-57
2021/07/30 09:03:11;;;;;;;17.63;6.95;;;;;;;42.90;17.51;93287.53;5152027;27;20023;-57
2021/07/30 09:05:37;;;;;;;18.20;6.45;;;;;;;43.23;17.25;93277.78;5152276;27;20019;-57
2021/07/30 09:08:05;;;;;;;15.75;5.93;;;;;;;43.19;16.25;93278.63;5151063;27;20027;-57
2021/07/30 09:10:36;;;;;;;15.25;6.78;;;;;;;43.28;16.47;93282.72;5152130;27;20380;-57
2021/07/30 09:13:21;;;;;;;20.13;6.88;;;;;;;43.47;15.96;93279.94;5151919;27;20027;-57
2021/07/30 09:16:04;;;;;;;21.85;6.80;;;;;;;43.48;15.55;93278.44;5152003;27;20034;-57
2021/07/30 09:18:31;;;;;;;16.15;6.35;;;;;;;43.65;16.08;93265.50;5152139;27;20113;-57
2021/07/30 09:21:15;;;;;;;19.42;6.32;;;;;;;43.68;15.21;93274.88;5152175;27;20061;-57
2021/07/30 09:24:05;;;;;;;22.77;6.82;;;;;;;43.68;15.25;93269.06;5137426;27;20079;-57
2021/07/30 09:26:48;;;;;;;24.85;7.38;;;;;;;43.66;15.14;93264.00;5130976;27;20126;-57
2021/07/30 09:29:19;;;;;;;21.40;6.63;;;;;;;43.47;14.96;93262.47;5131226;27;20031;-57
2021/07/30 09:31:49;;;;;;;28.52;6.85;;;;;;;42.62;14.66;93267.34;5131412;27;20031;-57
2021/07/30 09:34:24;;;;;;;22.23;6.85;;;;;;;42.58;15.55;93265.25;5130860;27;20023;-57
2021/07/30 09:37:01;;;;;;;23.70;6.82;;;;;;;42.06;14.44;93255.16;5130958;27;20027;-57
2021/07/30 09:39:32;;;;;;;16.60;6.25;;;;;;;42.02;14.62;93253.03;5131241;27;20035;-57
2021/07/30 09:42:05;;;;;;;17.98;5.80;;;;;;;41.44;14.45;93263.28;5130908;27;20084;-57
2021/07/30 09:44:32;;;;;;;23.23;6.63;;;;;;;41.80;14.21;93255.88;5130958;27;20023;-57
2021/07/30 09:47:09;;;;;;;12.60;6.80;;;;;;;40.53;15.15;93250.22;5130872;27;20023;-56
2021/07/30 09:49:44;;;;;;;22.23;6.72;;;;;;;39.65;16.14;93249.81;5147035;27;20027;-57
2021/07/30 09:52:21;;;;;;;22.10;6.65;;;;;;;40.24;17.25;93253.00;5152106;27;20059;-56
2021/07/30 09:54:49;;;;;;;28.77;7.18;;;;;;;40.96;15.76;93252.91;5150846;27;20107;-57
2021/07/30 09:57:17;;;;;;;17.48;6.50;;;;;;;41.44;15.04;93246.63;5150188;27;20023;-57
2021/07/30 09:59:43;;;;;;;20.45;5.60;;;;;;;41.62;14.14;93247.63;5151793;27;20023;-57
2021/07/30 10:02:14;;;;;;;18.10;6.32;;;;;;;41.79;14.95;93245.72;5152758;27;20030;-57
2021/07/30 10:04:43;;;;;;;18.40;6.40;;;;;;;41.81;14.50;93240.59;5152770;27;20014;-57
2021/07/30 10:07:11;;;;;;;21.58;7.05;;;;;;;42.21;14.22;93239.47;5153133;27;20045;-58
2021/07/30 10:09:37;;;;;;;20.80;5.90;;;;;;;42.59;12.25;93234.03;5150775;27;20027;-57
2021/07/30 10:12:03;;;;;;;16.63;4.95;;;;;;;42.07;12.88;93236.25;5152588;27;20051;-57
2021/07/30 10:14:29;;;;;;;23.23;5.85;;;;;;;42.25;13.41;93238.66;5151125;27;20114;-57
2021/07/30 10:17:02;;;;;;;20.67;6.18;;;;;;;42.04;13.39;93229.09;5152779;27;20026;-57
2021/07/30 10:19:30;;;;;;;19.85;5.95;;;;;;;42.23;13.16;93233.59;5152835;27;20053;-57
2021/07/30 10:21:59;;;;;;;24.63;6.97;;;;;;;42.36;12.74;93225.25;5152710;27;20083;-57
2021/07/30 10:24:28;;;;;;;16.17;5.03;;;;;;;42.69;13.15;93233.72;5130579;27;20051;-56
2021/07/30 10:26:54;;;;;;;21.58;5.72;;;;;;;42.97;12.21;93233.56;5131930;27;20262;-57
2021/07/30 10:29:20;;;;;;;26.20;6.82;;;;;;;43.01;11.75;93229.81;5130886;27;20034;-57
2021/07/30 10:31:50;;;;;;;20.00;6.50;;;;;;;43.17;10.80;93220.56;5132332;27;20430;-57
2021/07/30 10:34:16;;;;;;;21.88;5.80;;;;;;;42.85;10.68;93228.13;5131669;27;20518;-57
2021/07/30 10:36:42;;;;;;;23.03;6.10;;;;;;;42.19;11.38;93219.22;5131611;27;20075;-57
2021/07/30 10:39:16;;;;;;;17.05;5.60;;;;;;;41.30;12.39;93220.19;5131384;27;20038;-56
2021/07/30 10:42:10;;;;;;;15.15;5.88;;;;;;;41.30;11.42;93206.41;5131469;27;20095;-57
2021/07/30 10:45:19;;;;;;;17.63;5.70;;;;;;;41.88;12.08;93207.03;5136947;27;20042;-56
2021/07/30 10:47:44;;;;;;;21.25;5.85;;;;;;;42.24;11.99;93205.28;5152654;27;20065;-57
2021/07/30 10:50:42;;;;;;;20.30;5.38;;;;;;;42.88;10.03;93196.84;5152071;27;20073;-56
2021/07/30 10:53:36;;;;;;;17.67;5.20;;;;;;;42.41;10.27;93191.72;5143624;27;20131;-56
2021/07/30 10:56:27;;;;;;;17.55;5.93;;;;;;;42.74;10.95;93192.16;5152531;27;20522;-56
2021/07/30 10:58:53;;;;;;;19.40;6.93;;;;;;;42.62;8.45;93186.03;5152027;27;20166;-57
2021/07/30 11:01:28;;;;;;;20.73;5.18;;;;;;;43.14;10.37;93186.53;5150623;27;20059;-57
2021/07/30 11:03:53;;;;;;;24.60;4.97;;;;;;;43.70;9.67;93181.72;5151187;27;20054;-57
2021/07/30 11:06:31;;;;;;;18.90;4.72;;;;;;;44.45;8.62;93176.78;5151816;27;20507;-57
2021/07/30 11:09:03;;;;;;;;;;;;;;;44.15;8.82;93166.97;5152599;27;20031;-57
2021/07/30 11:11:51;;;;;;;21.00;5.82;;;;;;;44.26;9.66;93161.47;5151636;27;19918;-56
2021/07/30 11:14:33;;;;;;;21.02;5.18;;;;;;;43.61;9.87;93160.22;5140236;27;20034;-56
2021/07/30 11:17:06;;;;;;;23.95;5.95;;;;;;;44.06;9.46;93159.34;5141484;27;20023;-57
2021/07/30 11:19:33;;;;;;;21.48;6.03;;;;;;;42.53;9.20;93165.25;5140943;27;20027;-57
2021/07/30 11:22:00;;;;;;;22.02;6.28;;;;;;;43.19;10.02;93164.59;5140486;27;20535;-57
2021/07/30 11:24:26;;;;;;;15.98;4.97;;;;;;;43.00;8.35;93152.84;5139601;27;20080;-57
2021/07/30 11:26:52;;;;;;;17.85;4.95;;;;;;;41.86;8.72;93152.00;5136920;27;20041;-57